sensor_id;sensor_type;location;lat;lon;timestamp;P1;durP1;ratioP1;P2;durP2;ratioP2
1699;SDS011;847;48.058;7.810;2024-03-02T00:01:50;9.13;;;7.00;;
1699;SDS011;847;48.058;7.810;2024-03-02T00:04:33;9.30;;;6.20;;
1699;SDS011;847;48.058;7.810;2024-03-02T00:07:10;8.73;;;6.30;;
1699;SDS011;847;48.058;7.810;2024-03-02T00:09:52;6.80;;;5.83;;
1699;SDS011;847;48.058;7.810;2024-03-02T00:12:22;4.80;;;4.30;;
1699;SDS011;847;48.058;7.810;2024-03-02T00:14:52;9.20;;;7.80;;
1699;SDS011;847;48.058;7.810;2024-03-02T00:17:35;7.80;;;6.70;;
1699;SDS011;847;48.058;7.810;2024-03-02T00:20:21;7.80;;;7.00;;
1699;SDS011;847;48.058;7.810;2024-03-02T00:23:05;6.73;;;4.87;;
1699;SDS011;847;48.058;7.810;2024-03-02T00:25:40;10.93;;;8.00;;
1699;SDS011;847;48.058;7.810;2024-03-02T00:28:17;8.23;;;7.00;;
1699;SDS011;847;48.058;7.810;2024-03-02T00:33:40;6.83;;;6.07;;
1699;SDS011;847;48.058;7.810;2024-03-02T00:39:12;10.53;;;7.13;;
1699;SDS011;847;48.058;7.810;2024-03-02T00:41:43;6.23;;;5.57;;
1699;SDS011;847;48.058;7.810;2024-03-02T00:44:13;8.10;;;7.13;;
1699;SDS011;847;48.058;7.810;2024-03-02T00:46:43;7.57;;;5.90;;
1699;SDS011;847;48.058;7.810;2024-03-02T00:49:18;8.23;;;6.00;;
1699;SDS011;847;48.058;7.810;2024-03-02T00:51:57;8.43;;;7.10;;
1699;SDS011;847;48.058;7.810;2024-03-02T00:54:33;8.70;;;6.77;;
1699;SDS011;847;48.058;7.810;2024-03-02T00:57:16;7.33;;;6.63;;
1699;SDS011;847;48.058;7.810;2024-03-02T00:59:45;8.60;;;5.70;;
1699;SDS011;847;48.058;7.810;2024-03-02T01:02:14;5.87;;;5.03;;
1699;SDS011;847;48.058;7.810;2024-03-02T01:05:06;6.70;;;4.77;;
1699;SDS011;847;48.058;7.810;2024-03-02T01:08:05;5.13;;;4.57;;
1699;SDS011;847;48.058;7.810;2024-03-02T01:10:55;5.27;;;4.37;;
1699;SDS011;847;48.058;7.810;2024-03-02T01:13:26;4.60;;;4.23;;
1699;SDS011;847;48.058;7.810;2024-03-02T01:15:58;8.53;;;4.97;;
1699;SDS011;847;48.058;7.810;2024-03-02T01:18:34;5.40;;;4.37;;
1699;SDS011;847;48.058;7.810;2024-03-02T01:21:09;4.83;;;4.03;;
1699;SDS011;847;48.058;7.810;2024-03-02T01:23:41;6.50;;;5.27;;
1699;SDS011;847;48.058;7.810;2024-03-02T01:26:15;4.23;;;3.80;;
1699;SDS011;847;48.058;7.810;2024-03-02T01:28:53;5.47;;;4.67;;
1699;SDS011;847;48.058;7.810;2024-03-02T01:31:33;4.80;;;3.70;;
1699;SDS011;847;48.058;7.810;2024-03-02T01:34:07;5.47;;;3.97;;
1699;SDS011;847;48.058;7.810;2024-03-02T01:36:45;4.93;;;4.20;;
1699;SDS011;847;48.058;7.810;2024-03-02T01:39:16;5.27;;;4.17;;
1699;SDS011;847;48.058;7.810;2024-03-02T01:41:52;5.83;;;5.20;;
1699;SDS011;847;48.058;7.810;2024-03-02T01:44:21;6.97;;;5.50;;
1699;SDS011;847;48.058;7.810;2024-03-02T01:46:57;9.83;;;6.93;;
1699;SDS011;847;48.058;7.810;2024-03-02T01:49:34;6.00;;;5.40;;
1699;SDS011;847;48.058;7.810;2024-03-02T01:52:04;7.07;;;5.80;;
1699;SDS011;847;48.058;7.810;2024-03-02T01:59:58;6.00;;;4.90;;
1699;SDS011;847;48.058;7.810;2024-03-02T02:02:36;6.30;;;5.20;;
1699;SDS011;847;48.058;7.810;2024-03-02T02:05:10;5.30;;;4.80;;
1699;SDS011;847;48.058;7.810;2024-03-02T02:07:48;7.97;;;5.57;;
1699;SDS011;847;48.058;7.810;2024-03-02T02:10:19;6.90;;;5.60;;
1699;SDS011;847;48.058;7.810;2024-03-02T02:12:53;7.17;;;5.60;;
1699;SDS011;847;48.058;7.810;2024-03-02T02:15:27;7.40;;;5.37;;
1699;SDS011;847;48.058;7.810;2024-03-02T02:18:03;7.70;;;7.00;;
1699;SDS011;847;48.058;7.810;2024-03-02T02:20:32;7.90;;;7.10;;
1699;SDS011;847;48.058;7.810;2024-03-02T02:23:08;6.20;;;5.60;;
1699;SDS011;847;48.058;7.810;2024-03-02T02:28:52;6.03;;;4.80;;
1699;SDS011;847;48.058;7.810;2024-03-02T02:31:26;5.30;;;4.80;;
1699;SDS011;847;48.058;7.810;2024-03-02T02:34:08;5.30;;;4.77;;
1699;SDS011;847;48.058;7.810;2024-03-02T02:36:37;5.27;;;4.73;;
1699;SDS011;847;48.058;7.810;2024-03-02T02:39:17;8.00;;;4.93;;
1699;SDS011;847;48.058;7.810;2024-03-02T02:41:51;6.07;;;5.40;;
1699;SDS011;847;48.058;7.810;2024-03-02T02:44:26;5.50;;;5.00;;
1699;SDS011;847;48.058;7.810;2024-03-02T02:50:06;6.50;;;5.30;;
1699;SDS011;847;48.058;7.810;2024-03-02T02:52:45;5.40;;;4.90;;
1699;SDS011;847;48.058;7.810;2024-03-02T02:58:18;6.03;;;5.43;;
1699;SDS011;847;48.058;7.810;2024-03-02T03:16:20;5.17;;;4.07;;
1699;SDS011;847;48.058;7.810;2024-03-02T03:18:53;4.83;;;4.13;;
1699;SDS011;847;48.058;7.810;2024-03-02T03:21:21;5.63;;;4.67;;
1699;SDS011;847;48.058;7.810;2024-03-02T03:23:52;5.60;;;4.50;;
1699;SDS011;847;48.058;7.810;2024-03-02T03:26:25;4.40;;;4.00;;
1699;SDS011;847;48.058;7.810;2024-03-02T03:28:55;5.00;;;4.50;;
1699;SDS011;847;48.058;7.810;2024-03-02T03:31:27;5.37;;;4.83;;
1699;SDS011;847;48.058;7.810;2024-03-02T03:34:16;4.60;;;4.20;;
1699;SDS011;847;48.058;7.810;2024-03-02T03:42:18;5.80;;;4.03;;
1699;SDS011;847;48.058;7.810;2024-03-02T03:44:48;4.77;;;4.37;;
1699;SDS011;847;48.058;7.810;2024-03-02T03:52:44;4.67;;;4.27;;
1699;SDS011;847;48.058;7.810;2024-03-02T03:55:21;5.20;;;4.70;;
1699;SDS011;847;48.058;7.810;2024-03-02T04:00:27;6.83;;;4.30;;
1699;SDS011;847;48.058;7.810;2024-03-02T04:03:02;4.73;;;4.03;;
1699;SDS011;847;48.058;7.810;2024-03-02T04:05:29;5.70;;;4.30;;
1699;SDS011;847;48.058;7.810;2024-03-02T04:08:07;4.80;;;4.23;;
1699;SDS011;847;48.058;7.810;2024-03-02T04:10:37;4.33;;;3.93;;
1699;SDS011;847;48.058;7.810;2024-03-02T04:13:09;3.90;;;3.60;;
1699;SDS011;847;48.058;7.810;2024-03-02T10:56:41;1.30;;;1.20;;
1699;SDS011;847;48.058;7.810;2024-03-02T10:59:32;1.37;;;1.07;;
1699;SDS011;847;48.058;7.810;2024-03-02T11:02:01;2.27;;;1.20;;
1699;SDS011;847;48.058;7.810;2024-03-02T11:04:35;1.53;;;1.30;;
1699;SDS011;847;48.058;7.810;2024-03-02T11:07:08;1.20;;;1.10;;
1699;SDS011;847;48.058;7.810;2024-03-02T11:09:38;2.00;;;1.37;;
1699;SDS011;847;48.058;7.810;2024-03-02T11:12:19;3.93;;;0.90;;
1699;SDS011;847;48.058;7.810;2024-03-02T11:14:52;1.17;;;0.97;;
1699;SDS011;847;48.058;7.810;2024-03-02T11:17:19;0.93;;;0.93;;
1699;SDS011;847;48.058;7.810;2024-03-02T11:19:46;1.10;;;1.00;;
1699;SDS011;847;48.058;7.810;2024-03-02T11:22:15;1.37;;;0.90;;
1699;SDS011;847;48.058;7.810;2024-03-02T11:24:47;3.33;;;1.03;;
1699;SDS011;847;48.058;7.810;2024-03-02T11:27:20;0.97;;;0.83;;
1699;SDS011;847;48.058;7.810;2024-03-02T11:33:25;1.17;;;0.90;;
1699;SDS011;847;48.058;7.810;2024-03-02T11:35:54;1.73;;;1.30;;
1699;SDS011;847;48.058;7.810;2024-03-02T11:38:24;1.50;;;1.10;;
1699;SDS011;847;48.058;7.810;2024-03-02T11:40:57;1.20;;;1.10;;
1699;SDS011;847;48.058;7.810;2024-03-02T11:43:29;0.70;;;0.70;;
1699;SDS011;847;48.058;7.810;2024-03-02T11:45:58;1.00;;;0.90;;
1699;SDS011;847;48.058;7.810;2024-03-02T11:48:26;1.10;;;0.90;;
1699;SDS011;847;48.058;7.810;2024-03-02T11:50:53;1.27;;;1.17;;
1699;SDS011;847;48.058;7.810;2024-03-02T11:53:23;1.27;;;1.17;;
1699;SDS011;847;48.058;7.810;2024-03-02T11:55:52;1.10;;;0.93;;
1699;SDS011;847;48.058;7.810;2024-03-02T11:58:21;0.87;;;0.80;;
1699;SDS011;847;48.058;7.810;2024-03-02T12:00:51;0.97;;;0.90;;
1699;SDS011;847;48.058;7.810;2024-03-02T12:03:20;0.93;;;0.70;;
1699;SDS011;847;48.058;7.810;2024-03-02T12:05:48;0.77;;;0.77;;
1699;SDS011;847;48.058;7.810;2024-03-02T12:08:15;1.73;;;0.70;;
1699;SDS011;847;48.058;7.810;2024-03-02T12:10:43;1.00;;;0.80;;
1699;SDS011;847;48.058;7.810;2024-03-02T12:13:21;1.03;;;0.93;;
1699;SDS011;847;48.058;7.810;2024-03-02T12:15:48;1.10;;;1.00;;
1699;SDS011;847;48.058;7.810;2024-03-02T12:18:22;1.33;;;0.80;;
1699;SDS011;847;48.058;7.810;2024-03-02T12:20:49;1.37;;;0.90;;
1699;SDS011;847;48.058;7.810;2024-03-02T12:23:17;0.83;;;0.80;;
1699;SDS011;847;48.058;7.810;2024-03-02T12:25:45;0.70;;;0.70;;
1699;SDS011;847;48.058;7.810;2024-03-02T12:28:12;1.20;;;1.10;;
1699;SDS011;847;48.058;7.810;2024-03-02T12:30:39;1.03;;;0.90;;
1699;SDS011;847;48.058;7.810;2024-03-02T12:33:07;2.23;;;0.90;;
1699;SDS011;847;48.058;7.810;2024-03-02T12:35:37;1.03;;;0.80;;
1699;SDS011;847;48.058;7.810;2024-03-02T12:38:04;1.30;;;1.17;;
1699;SDS011;847;48.058;7.810;2024-03-02T12:40:31;1.03;;;0.80;;
1699;SDS011;847;48.058;7.810;2024-03-02T12:42:58;1.03;;;0.90;;
1699;SDS011;847;48.058;7.810;2024-03-02T12:45:25;0.90;;;0.90;;
1699;SDS011;847;48.058;7.810;2024-03-02T12:47:53;0.87;;;0.70;;
1699;SDS011;847;48.058;7.810;2024-03-02T12:50:21;1.40;;;1.03;;
1699;SDS011;847;48.058;7.810;2024-03-02T12:52:51;1.40;;;1.20;;
1699;SDS011;847;48.058;7.810;2024-03-02T12:55:22;1.37;;;1.00;;
1699;SDS011;847;48.058;7.810;2024-03-02T12:57:51;1.10;;;1.00;;
1699;SDS011;847;48.058;7.810;2024-03-02T13:00:19;0.93;;;0.90;;
1699;SDS011;847;48.058;7.810;2024-03-02T13:02:46;1.37;;;0.90;;
1699;SDS011;847;48.058;7.810;2024-03-02T13:05:15;0.90;;;0.80;;
1699;SDS011;847;48.058;7.810;2024-03-02T13:07:44;1.73;;;0.80;;
1699;SDS011;847;48.058;7.810;2024-03-02T13:10:13;1.40;;;1.20;;
1699;SDS011;847;48.058;7.810;2024-03-02T13:12:40;1.13;;;0.80;;
1699;SDS011;847;48.058;7.810;2024-03-02T13:15:08;1.23;;;0.80;;
1699;SDS011;847;48.058;7.810;2024-03-02T13:17:35;2.97;;;1.27;;
1699;SDS011;847;48.058;7.810;2024-03-02T13:20:03;1.47;;;1.20;;
1699;SDS011;847;48.058;7.810;2024-03-02T13:22:33;1.47;;;1.37;;
1699;SDS011;847;48.058;7.810;2024-03-02T13:25:01;0.60;;;0.60;;
1699;SDS011;847;48.058;7.810;2024-03-02T13:27:29;1.63;;;0.97;;
1699;SDS011;847;48.058;7.810;2024-03-02T13:30:02;1.00;;;0.90;;
1699;SDS011;847;48.058;7.810;2024-03-02T13:32:30;1.67;;;1.50;;
1699;SDS011;847;48.058;7.810;2024-03-02T13:34:57;1.20;;;1.10;;
1699;SDS011;847;48.058;7.810;2024-03-02T13:37:24;0.90;;;0.83;;
1699;SDS011;847;48.058;7.810;2024-03-02T13:39:51;1.40;;;0.80;;
1699;SDS011;847;48.058;7.810;2024-03-02T13:42:19;1.20;;;0.83;;
1699;SDS011;847;48.058;7.810;2024-03-02T13:44:45;0.80;;;0.80;;
1699;SDS011;847;48.058;7.810;2024-03-02T13:47:14;1.10;;;1.00;;
1699;SDS011;847;48.058;7.810;2024-03-02T13:49:41;1.80;;;1.23;;
1699;SDS011;847;48.058;7.810;2024-03-02T13:52:10;1.00;;;0.80;;
1699;SDS011;847;48.058;7.810;2024-03-02T13:54:38;2.63;;;0.97;;
1699;SDS011;847;48.058;7.810;2024-03-02T13:57:05;1.73;;;1.00;;
1699;SDS011;847;48.058;7.810;2024-03-02T13:59:34;1.43;;;1.20;;
1699;SDS011;847;48.058;7.810;2024-03-02T14:02:01;1.57;;;1.17;;
1699;SDS011;847;48.058;7.810;2024-03-02T14:04:29;2.40;;;1.43;;
1699;SDS011;847;48.058;7.810;2024-03-02T14:06:56;2.60;;;1.47;;
1699;SDS011;847;48.058;7.810;2024-03-02T14:09:23;1.00;;;1.00;;
1699;SDS011;847;48.058;7.810;2024-03-02T14:11:50;1.57;;;1.07;;
1699;SDS011;847;48.058;7.810;2024-03-02T14:14:17;1.27;;;1.17;;
1699;SDS011;847;48.058;7.810;2024-03-02T14:16:45;1.13;;;1.00;;
1699;SDS011;847;48.058;7.810;2024-03-02T14:19:12;1.07;;;0.90;;
1699;SDS011;847;48.058;7.810;2024-03-02T14:21:39;1.77;;;0.87;;
1699;SDS011;847;48.058;7.810;2024-03-02T14:24:05;0.90;;;0.80;;
1699;SDS011;847;48.058;7.810;2024-03-02T14:26:33;1.40;;;0.90;;
1699;SDS011;847;48.058;7.810;2024-03-02T14:29:00;1.20;;;1.10;;
1699;SDS011;847;48.058;7.810;2024-03-02T14:31:27;1.40;;;0.97;;
1699;SDS011;847;48.058;7.810;2024-03-02T14:33:55;1.20;;;1.10;;
1699;SDS011;847;48.058;7.810;2024-03-02T14:36:22;1.70;;;1.10;;
1699;SDS011;847;48.058;7.810;2024-03-02T14:38:49;0.97;;;0.70;;
1699;SDS011;847;48.058;7.810;2024-03-02T14:41:16;0.77;;;0.77;;
1699;SDS011;847;48.058;7.810;2024-03-02T14:43:42;1.10;;;1.00;;
1699;SDS011;847;48.058;7.810;2024-03-02T14:46:09;1.10;;;1.00;;
1699;SDS011;847;48.058;7.810;2024-03-02T14:48:37;1.53;;;1.40;;
1699;SDS011;847;48.058;7.810;2024-03-02T14:51:05;1.80;;;1.70;;
1699;SDS011;847;48.058;7.810;2024-03-02T14:53:32;1.57;;;1.47;;
1699;SDS011;847;48.058;7.810;2024-03-02T14:55:59;2.70;;;1.60;;
1699;SDS011;847;48.058;7.810;2024-03-02T14:58:25;3.97;;;1.83;;
1699;SDS011;847;48.058;7.810;2024-03-02T15:00:52;2.63;;;2.03;;
1699;SDS011;847;48.058;7.810;2024-03-02T15:03:19;2.17;;;1.97;;
1699;SDS011;847;48.058;7.810;2024-03-02T15:05:46;3.93;;;2.00;;
1699;SDS011;847;48.058;7.810;2024-03-02T15:08:18;2.77;;;1.90;;
1699;SDS011;847;48.058;7.810;2024-03-02T15:10:44;2.27;;;1.70;;
1699;SDS011;847;48.058;7.810;2024-03-02T15:13:11;3.80;;;2.40;;
1699;SDS011;847;48.058;7.810;2024-03-02T15:15:43;2.13;;;1.80;;
1699;SDS011;847;48.058;7.810;2024-03-02T15:18:09;3.13;;;2.40;;
1699;SDS011;847;48.058;7.810;2024-03-02T15:20:40;2.10;;;1.90;;
1699;SDS011;847;48.058;7.810;2024-03-02T15:23:10;3.20;;;2.07;;
1699;SDS011;847;48.058;7.810;2024-03-02T15:25:39;2.73;;;2.03;;
1699;SDS011;847;48.058;7.810;2024-03-02T15:28:06;3.40;;;3.10;;
1699;SDS011;847;48.058;7.810;2024-03-02T15:30:33;3.83;;;3.40;;
1699;SDS011;847;48.058;7.810;2024-03-02T15:33:00;4.33;;;3.93;;
1699;SDS011;847;48.058;7.810;2024-03-02T15:35:26;10.00;;;4.27;;
1699;SDS011;847;48.058;7.810;2024-03-02T15:37:53;4.83;;;3.30;;
1699;SDS011;847;48.058;7.810;2024-03-02T15:40:20;3.27;;;2.90;;
1699;SDS011;847;48.058;7.810;2024-03-02T15:42:48;3.33;;;2.10;;
1699;SDS011;847;48.058;7.810;2024-03-02T15:45:15;1.87;;;1.70;;
1699;SDS011;847;48.058;7.810;2024-03-02T15:47:41;3.90;;;2.20;;
1699;SDS011;847;48.058;7.810;2024-03-02T15:50:09;1.40;;;1.30;;
1699;SDS011;847;48.058;7.810;2024-03-02T15:52:36;2.40;;;2.20;;
1699;SDS011;847;48.058;7.810;2024-03-02T15:55:03;28.20;;;14.50;;
1699;SDS011;847;48.058;7.810;2024-03-02T15:57:30;17.13;;;11.53;;
1699;SDS011;847;48.058;7.810;2024-03-02T15:59:59;4.17;;;3.70;;
1699;SDS011;847;48.058;7.810;2024-03-02T16:02:26;2.43;;;2.23;;
1699;SDS011;847;48.058;7.810;2024-03-02T16:04:52;3.37;;;3.07;;
1699;SDS011;847;48.058;7.810;2024-03-02T16:07:19;2.97;;;2.53;;
1699;SDS011;847;48.058;7.810;2024-03-02T16:09:46;5.43;;;3.87;;
1699;SDS011;847;48.058;7.810;2024-03-02T16:12:12;4.37;;;3.60;;
1699;SDS011;847;48.058;7.810;2024-03-02T16:14:40;4.37;;;3.30;;
1699;SDS011;847;48.058;7.810;2024-03-02T16:17:08;2.63;;;2.40;;
1699;SDS011;847;48.058;7.810;2024-03-02T16:19:35;2.77;;;2.30;;
1699;SDS011;847;48.058;7.810;2024-03-02T16:22:04;2.50;;;2.30;;
1699;SDS011;847;48.058;7.810;2024-03-02T16:24:31;2.53;;;2.33;;
1699;SDS011;847;48.058;7.810;2024-03-02T16:26:58;2.53;;;1.73;;
1699;SDS011;847;48.058;7.810;2024-03-02T16:29:25;3.00;;;2.00;;
1699;SDS011;847;48.058;7.810;2024-03-02T16:31:51;2.90;;;2.40;;
1699;SDS011;847;48.058;7.810;2024-03-02T16:34:19;2.60;;;2.37;;
1699;SDS011;847;48.058;7.810;2024-03-02T16:36:46;3.17;;;2.67;;
1699;SDS011;847;48.058;7.810;2024-03-02T16:39:13;4.00;;;2.93;;
1699;SDS011;847;48.058;7.810;2024-03-02T16:41:39;4.30;;;3.30;;
1699;SDS011;847;48.058;7.810;2024-03-02T16:44:11;3.90;;;2.70;;
1699;SDS011;847;48.058;7.810;2024-03-02T16:46:38;2.60;;;2.40;;
1699;SDS011;847;48.058;7.810;2024-03-02T16:49:05;4.90;;;2.57;;
1699;SDS011;847;48.058;7.810;2024-03-02T16:51:39;3.57;;;2.83;;
1699;SDS011;847;48.058;7.810;2024-03-02T16:54:05;3.27;;;2.00;;
1699;SDS011;847;48.058;7.810;2024-03-02T16:56:37;4.50;;;3.00;;
1699;SDS011;847;48.058;7.810;2024-03-02T16:59:04;2.97;;;2.20;;
1699;SDS011;847;48.058;7.810;2024-03-02T17:01:31;6.03;;;4.13;;
1699;SDS011;847;48.058;7.810;2024-03-02T17:03:58;3.10;;;2.20;;
1699;SDS011;847;48.058;7.810;2024-03-02T17:06:37;3.13;;;2.10;;
1699;SDS011;847;48.058;7.810;2024-03-02T17:09:20;3.17;;;2.67;;
1699;SDS011;847;48.058;7.810;2024-03-02T17:11:46;4.63;;;3.17;;
1699;SDS011;847;48.058;7.810;2024-03-02T17:14:13;7.60;;;5.37;;
1699;SDS011;847;48.058;7.810;2024-03-02T17:16:40;4.60;;;3.70;;
1699;SDS011;847;48.058;7.810;2024-03-02T17:19:07;7.17;;;4.40;;
1699;SDS011;847;48.058;7.810;2024-03-02T17:21:34;6.07;;;4.20;;
1699;SDS011;847;48.058;7.810;2024-03-02T17:24:02;6.00;;;5.23;;
1699;SDS011;847;48.058;7.810;2024-03-02T17:26:29;11.20;;;6.60;;
1699;SDS011;847;48.058;7.810;2024-03-02T17:28:56;8.70;;;6.70;;
1699;SDS011;847;48.058;7.810;2024-03-02T17:31:23;6.40;;;5.50;;
1699;SDS011;847;48.058;7.810;2024-03-02T17:33:50;9.63;;;6.03;;
1699;SDS011;847;48.058;7.810;2024-03-02T17:36:16;6.10;;;5.00;;
1699;SDS011;847;48.058;7.810;2024-03-02T17:38:44;8.40;;;5.90;;
1699;SDS011;847;48.058;7.810;2024-03-02T17:41:15;7.10;;;5.20;;
1699;SDS011;847;48.058;7.810;2024-03-02T17:43:41;6.53;;;5.10;;
1699;SDS011;847;48.058;7.810;2024-03-02T17:46:08;6.33;;;5.50;;
1699;SDS011;847;48.058;7.810;2024-03-02T17:48:35;10.20;;;6.20;;
1699;SDS011;847;48.058;7.810;2024-03-02T17:51:05;8.10;;;7.30;;
1699;SDS011;847;48.058;7.810;2024-03-02T17:53:32;9.40;;;7.60;;
1699;SDS011;847;48.058;7.810;2024-03-02T17:55:59;11.57;;;9.37;;
1699;SDS011;847;48.058;7.810;2024-03-02T17:58:27;12.03;;;7.87;;
1699;SDS011;847;48.058;7.810;2024-03-02T18:00:54;10.13;;;8.20;;
1699;SDS011;847;48.058;7.810;2024-03-02T18:03:21;9.77;;;7.50;;
1699;SDS011;847;48.058;7.810;2024-03-02T18:05:48;9.30;;;7.57;;
1699;SDS011;847;48.058;7.810;2024-03-02T18:08:14;7.40;;;6.57;;
1699;SDS011;847;48.058;7.810;2024-03-02T18:10:41;8.50;;;6.67;;
1699;SDS011;847;48.058;7.810;2024-03-02T18:13:08;8.47;;;6.00;;
1699;SDS011;847;48.058;7.810;2024-03-02T18:15:36;7.83;;;6.00;;
1699;SDS011;847;48.058;7.810;2024-03-02T18:18:03;7.40;;;6.40;;
1699;SDS011;847;48.058;7.810;2024-03-02T18:20:31;9.83;;;6.57;;
1699;SDS011;847;48.058;7.810;2024-03-02T18:22:59;7.43;;;5.33;;
1699;SDS011;847;48.058;7.810;2024-03-02T18:25:26;6.03;;;5.33;;
1699;SDS011;847;48.058;7.810;2024-03-02T18:27:53;9.93;;;7.40;;
1699;SDS011;847;48.058;7.810;2024-03-02T18:30:20;16.40;;;9.53;;
1699;SDS011;847;48.058;7.810;2024-03-02T18:32:48;10.50;;;7.23;;
1699;SDS011;847;48.058;7.810;2024-03-02T18:35:15;4.37;;;3.60;;
1699;SDS011;847;48.058;7.810;2024-03-02T18:37:43;4.07;;;3.10;;
1699;SDS011;847;48.058;7.810;2024-03-02T18:40:10;3.20;;;2.53;;
1699;SDS011;847;48.058;7.810;2024-03-02T18:42:59;5.13;;;4.63;;
1699;SDS011;847;48.058;7.810;2024-03-02T18:54:12;14.60;;;11.67;;
1699;SDS011;847;48.058;7.810;2024-03-02T18:56:38;17.00;;;12.30;;
1699;SDS011;847;48.058;7.810;2024-03-02T18:59:05;12.87;;;10.10;;
1699;SDS011;847;48.058;7.810;2024-03-02T19:01:32;14.17;;;10.33;;
1699;SDS011;847;48.058;7.810;2024-03-02T19:03:59;17.97;;;11.30;;
1699;SDS011;847;48.058;7.810;2024-03-02T19:06:26;22.33;;;13.33;;
1699;SDS011;847;48.058;7.810;2024-03-02T19:08:52;40.60;;;27.60;;
1699;SDS011;847;48.058;7.810;2024-03-02T19:11:21;26.67;;;19.73;;
1699;SDS011;847;48.058;7.810;2024-03-02T19:22:17;9.70;;;8.50;;
